Airfield :
LOGIN :

Register | Disclaimer

   EN    FR    IT 

 










Legend :    VFR   Marginal VFR   IFR   Intensive IFR   Very Intensive IFR
Visi :
Ceiling :
>= 8 km
>= 3000ft
5 to 8 km
1000 to 3000 ft
1500m to 5 km
500 to 1000 ft
800 to 1500m
200 to 500 ft
< 800m
< 200 ft
Symbols :   Thunderstorms  Fog  Heavy snow  Heavy precipitations  Wind > 20 kt
SIGMETs :     Misc.  Thunderstorms  Icing  Turbulence  Mountain Waves  Volcanic Ashes






- Airport Elevation : 682 ft
- IATA code : VTB


UMII - Vitebsk

CURRENT METAR :
  • 250900Z 34004G07MPS 300V060 9999 SCT030 21/09 Q1019 NOSIG

EXPIRED METARs :
  • 250808Z 34004G07MPS 300V060 9999 FEW030 21/10 Q1019 NOSIG
  • 250800Z 02005G08MPS 330V060 9999 FEW030 21/10 Q1019 NOSIG
  • 250735Z 35005G08MPS 9999 FEW030 19/11 Q1018 NOSIG
  • 250700Z 01004G07MPS 9999 FEW030 19/11 Q1018 NOSIG
  • 250600Z 01004G07MPS CAVOK 19/12 Q1018 NOSIG
  • 250500Z 01004MPS CAVOK 17/11 Q1018 NOSIG

TAF TAF UMII
Valid from the 25 at 09:00 until the 25 at 18:00 UTC


250807Z 2509/2518 01003G08MPS 9999 BKN020
TEMPO 2509/2518 35004G09MPS



MET'MAP, your aeronautical weather chart ! - Copyright ORBIFLY December 2007 - Disclaimer

ORBIFLY MET'MAP TEAM :

Programming & Development : Alexandra Zaïnal
Original concept : Baudouin d'Aumeries
Technical & hardware support : Manuel Goepfert
Assistance : Marc-Olivier Méhu




SOURCES & CREDITS :

   NOAA